sensor_id;sensor_type;location;lat;lon;timestamp;P1;durP1;ratioP1;P2;durP2;ratioP2
39930;SDS011;26635;-35.248;149.138;2023-01-25T00:00:36;1.65;;;1.05;;
39930;SDS011;26635;-35.248;149.138;2023-01-25T00:03:08;1.42;;;0.70;;
39930;SDS011;26635;-35.248;149.138;2023-01-25T00:05:38;0.68;;;0.60;;
39930;SDS011;26635;-35.248;149.138;2023-01-25T00:08:09;5.40;;;1.65;;
39930;SDS011;26635;-35.248;149.138;2023-01-25T00:10:39;1.55;;;0.85;;
39930;SDS011;26635;-35.248;149.138;2023-01-25T00:13:10;1.70;;;0.57;;
39930;SDS011;26635;-35.248;149.138;2023-01-25T00:15:41;3.80;;;0.77;;
39930;SDS011;26635;-35.248;149.138;2023-01-25T00:18:11;1.40;;;0.60;;
39930;SDS011;26635;-35.248;149.138;2023-01-25T00:20:41;0.90;;;0.40;;
39930;SDS011;26635;-35.248;149.138;2023-01-25T00:23:12;1.13;;;0.63;;
39930;SDS011;26635;-35.248;149.138;2023-01-25T00:25:45;3.05;;;0.93;;
39930;SDS011;26635;-35.248;149.138;2023-01-25T00:28:23;2.57;;;0.70;;
39930;SDS011;26635;-35.248;149.138;2023-01-25T00:31:02;1.00;;;0.60;;
39930;SDS011;26635;-35.248;149.138;2023-01-25T00:33:48;1.33;;;0.60;;
39930;SDS011;26635;-35.248;149.138;2023-01-25T00:36:39;0.85;;;0.40;;
39930;SDS011;26635;-35.248;149.138;2023-01-25T00:39:15;0.60;;;0.30;;
39930;SDS011;26635;-35.248;149.138;2023-01-25T00:41:54;1.92;;;0.43;;
39930;SDS011;26635;-35.248;149.138;2023-01-25T00:44:34;1.20;;;0.40;;
39930;SDS011;26635;-35.248;149.138;2023-01-25T00:47:29;0.60;;;0.40;;
39930;SDS011;26635;-35.248;149.138;2023-01-25T00:52:48;1.23;;;0.40;;
39930;SDS011;26635;-35.248;149.138;2023-01-25T00:55:19;1.98;;;0.50;;
39930;SDS011;26635;-35.248;149.138;2023-01-25T00:57:52;1.73;;;0.50;;
39930;SDS011;26635;-35.248;149.138;2023-01-25T01:00:30;0.57;;;0.32;;
39930;SDS011;26635;-35.248;149.138;2023-01-25T01:03:13;0.60;;;0.40;;
39930;SDS011;26635;-35.248;149.138;2023-01-25T01:05:44;1.20;;;0.60;;
39930;SDS011;26635;-35.248;149.138;2023-01-25T01:08:34;2.50;;;0.38;;
39930;SDS011;26635;-35.248;149.138;2023-01-25T01:11:14;2.10;;;0.45;;
39930;SDS011;26635;-35.248;149.138;2023-01-25T01:13:57;1.95;;;0.70;;
39930;SDS011;26635;-35.248;149.138;2023-01-25T01:16:42;1.23;;;0.60;;
39930;SDS011;26635;-35.248;149.138;2023-01-25T01:19:12;1.05;;;0.50;;
39930;SDS011;26635;-35.248;149.138;2023-01-25T01:21:46;1.45;;;0.50;;
39930;SDS011;26635;-35.248;149.138;2023-01-25T01:24:22;0.80;;;0.52;;
39930;SDS011;26635;-35.248;149.138;2023-01-25T01:27:03;0.85;;;0.68;;
39930;SDS011;26635;-35.248;149.138;2023-01-25T01:29:37;2.38;;;0.75;;
39930;SDS011;26635;-35.248;149.138;2023-01-25T01:32:13;0.68;;;0.50;;
39930;SDS011;26635;-35.248;149.138;2023-01-25T01:34:44;1.80;;;0.70;;
39930;SDS011;26635;-35.248;149.138;2023-01-25T01:37:17;0.98;;;0.52;;
39930;SDS011;26635;-35.248;149.138;2023-01-25T01:39:56;0.75;;;0.45;;
39930;SDS011;26635;-35.248;149.138;2023-01-25T01:42:27;1.85;;;0.40;;
39930;SDS011;26635;-35.248;149.138;2023-01-25T01:45:41;0.85;;;0.50;;
39930;SDS011;26635;-35.248;149.138;2023-01-25T01:48:14;1.55;;;0.52;;
39930;SDS011;26635;-35.248;149.138;2023-01-25T01:50:50;0.65;;;0.50;;
39930;SDS011;26635;-35.248;149.138;2023-01-25T01:53:27;0.68;;;0.60;;
39930;SDS011;26635;-35.248;149.138;2023-01-25T01:56:08;1.98;;;0.60;;
39930;SDS011;26635;-35.248;149.138;2023-01-25T01:58:46;0.80;;;0.45;;
39930;SDS011;26635;-35.248;149.138;2023-01-25T02:01:26;0.50;;;0.50;;
39930;SDS011;26635;-35.248;149.138;2023-01-25T02:04:07;0.43;;;0.40;;
39930;SDS011;26635;-35.248;149.138;2023-01-25T02:07:01;0.70;;;0.50;;
39930;SDS011;26635;-35.248;149.138;2023-01-25T02:09:45;1.50;;;0.60;;
39930;SDS011;26635;-35.248;149.138;2023-01-25T02:12:19;1.00;;;0.50;;
39930;SDS011;26635;-35.248;149.138;2023-01-25T02:15:02;0.50;;;0.40;;
39930;SDS011;26635;-35.248;149.138;2023-01-25T02:17:37;2.55;;;0.50;;
39930;SDS011;26635;-35.248;149.138;2023-01-25T02:20:16;1.25;;;0.60;;
39930;SDS011;26635;-35.248;149.138;2023-01-25T02:25:56;1.05;;;0.50;;
39930;SDS011;26635;-35.248;149.138;2023-01-25T02:31:36;1.52;;;0.80;;
39930;SDS011;26635;-35.248;149.138;2023-01-25T02:34:06;1.02;;;0.55;;
39930;SDS011;26635;-35.248;149.138;2023-01-25T02:36:40;1.33;;;0.60;;
39930;SDS011;26635;-35.248;149.138;2023-01-25T02:39:15;0.50;;;0.45;;
39930;SDS011;26635;-35.248;149.138;2023-01-25T02:41:47;0.73;;;0.40;;
39930;SDS011;26635;-35.248;149.138;2023-01-25T02:44:25;1.35;;;0.60;;
39930;SDS011;26635;-35.248;149.138;2023-01-25T02:47:03;1.17;;;0.60;;
39930;SDS011;26635;-35.248;149.138;2023-01-25T02:49:36;0.98;;;0.60;;
39930;SDS011;26635;-35.248;149.138;2023-01-25T02:52:08;0.80;;;0.50;;
39930;SDS011;26635;-35.248;149.138;2023-01-25T02:54:56;0.95;;;0.80;;
39930;SDS011;26635;-35.248;149.138;2023-01-25T02:57:30;0.85;;;0.60;;
39930;SDS011;26635;-35.248;149.138;2023-01-25T03:00:05;2.45;;;0.40;;
39930;SDS011;26635;-35.248;149.138;2023-01-25T03:02:37;0.43;;;0.40;;
39930;SDS011;26635;-35.248;149.138;2023-01-25T03:05:09;0.50;;;0.43;;
39930;SDS011;26635;-35.248;149.138;2023-01-25T03:07:39;0.43;;;0.30;;
39930;SDS011;26635;-35.248;149.138;2023-01-25T03:10:14;0.90;;;0.45;;
39930;SDS011;26635;-35.248;149.138;2023-01-25T03:12:48;1.05;;;0.40;;
39930;SDS011;26635;-35.248;149.138;2023-01-25T03:15:21;0.80;;;0.60;;
39930;SDS011;26635;-35.248;149.138;2023-01-25T03:17:55;1.30;;;0.50;;
39930;SDS011;26635;-35.248;149.138;2023-01-25T03:20:25;1.13;;;0.60;;
39930;SDS011;26635;-35.248;149.138;2023-01-25T03:22:59;1.27;;;0.50;;
39930;SDS011;26635;-35.248;149.138;2023-01-25T03:25:30;1.52;;;0.50;;
39930;SDS011;26635;-35.248;149.138;2023-01-25T03:28:02;1.58;;;0.45;;
39930;SDS011;26635;-35.248;149.138;2023-01-25T03:30:34;1.27;;;0.40;;
39930;SDS011;26635;-35.248;149.138;2023-01-25T03:33:09;1.55;;;0.40;;
39930;SDS011;26635;-35.248;149.138;2023-01-25T03:35:43;0.85;;;0.40;;
39930;SDS011;26635;-35.248;149.138;2023-01-25T03:38:15;0.80;;;0.50;;
39930;SDS011;26635;-35.248;149.138;2023-01-25T03:40:57;0.52;;;0.43;;
39930;SDS011;26635;-35.248;149.138;2023-01-25T03:43:38;1.20;;;1.02;;
39930;SDS011;26635;-35.248;149.138;2023-01-25T03:46:08;1.13;;;0.40;;
39930;SDS011;26635;-35.248;149.138;2023-01-25T03:48:39;0.60;;;0.40;;
39930;SDS011;26635;-35.248;149.138;2023-01-25T03:51:10;0.88;;;0.40;;
39930;SDS011;26635;-35.248;149.138;2023-01-25T03:53:44;0.32;;;0.30;;
39930;SDS011;26635;-35.248;149.138;2023-01-25T03:56:21;1.77;;;0.57;;
39930;SDS011;26635;-35.248;149.138;2023-01-25T03:59:05;1.95;;;0.50;;
39930;SDS011;26635;-35.248;149.138;2023-01-25T04:01:40;1.05;;;0.35;;
39930;SDS011;26635;-35.248;149.138;2023-01-25T04:04:14;1.02;;;0.50;;
39930;SDS011;26635;-35.248;149.138;2023-01-25T04:06:45;0.77;;;0.43;;
39930;SDS011;26635;-35.248;149.138;2023-01-25T04:09:25;1.73;;;0.50;;
39930;SDS011;26635;-35.248;149.138;2023-01-25T04:11:58;2.08;;;0.57;;
39930;SDS011;26635;-35.248;149.138;2023-01-25T04:14:34;1.10;;;0.47;;
39930;SDS011;26635;-35.248;149.138;2023-01-25T04:17:10;2.05;;;0.52;;
39930;SDS011;26635;-35.248;149.138;2023-01-25T04:19:49;0.60;;;0.50;;
39930;SDS011;26635;-35.248;149.138;2023-01-25T04:22:21;0.80;;;0.32;;
39930;SDS011;26635;-35.248;149.138;2023-01-25T04:24:54;0.63;;;0.40;;
39930;SDS011;26635;-35.248;149.138;2023-01-25T04:27:30;1.08;;;0.30;;
39930;SDS011;26635;-35.248;149.138;2023-01-25T04:30:04;0.30;;;0.22;;
39930;SDS011;26635;-35.248;149.138;2023-01-25T04:32:43;1.90;;;0.50;;
39930;SDS011;26635;-35.248;149.138;2023-01-25T04:35:15;0.75;;;0.30;;
39930;SDS011;26635;-35.248;149.138;2023-01-25T04:37:54;1.15;;;0.63;;
39930;SDS011;26635;-35.248;149.138;2023-01-25T04:40:29;0.98;;;0.40;;
39930;SDS011;26635;-35.248;149.138;2023-01-25T04:43:02;0.93;;;0.40;;
39930;SDS011;26635;-35.248;149.138;2023-01-25T04:45:34;0.80;;;0.40;;
39930;SDS011;26635;-35.248;149.138;2023-01-25T04:48:05;0.75;;;0.40;;
39930;SDS011;26635;-35.248;149.138;2023-01-25T04:50:41;1.55;;;0.40;;
39930;SDS011;26635;-35.248;149.138;2023-01-25T04:53:25;0.40;;;0.30;;
39930;SDS011;26635;-35.248;149.138;2023-01-25T04:55:59;1.58;;;0.50;;
39930;SDS011;26635;-35.248;149.138;2023-01-25T04:58:32;0.47;;;0.30;;
39930;SDS011;26635;-35.248;149.138;2023-01-25T05:01:05;0.55;;;0.30;;
39930;SDS011;26635;-35.248;149.138;2023-01-25T05:03:40;0.70;;;0.30;;
39930;SDS011;26635;-35.248;149.138;2023-01-25T05:06:12;1.30;;;0.30;;
39930;SDS011;26635;-35.248;149.138;2023-01-25T05:11:21;2.17;;;0.40;;
39930;SDS011;26635;-35.248;149.138;2023-01-25T05:14:00;1.58;;;0.63;;
39930;SDS011;26635;-35.248;149.138;2023-01-25T05:16:38;0.35;;;0.30;;
39930;SDS011;26635;-35.248;149.138;2023-01-25T05:19:09;0.65;;;0.20;;
39930;SDS011;26635;-35.248;149.138;2023-01-25T05:21:40;0.45;;;0.35;;
39930;SDS011;26635;-35.248;149.138;2023-01-25T05:24:29;2.40;;;0.40;;
39930;SDS011;26635;-35.248;149.138;2023-01-25T05:27:02;1.60;;;0.30;;
39930;SDS011;26635;-35.248;149.138;2023-01-25T05:29:35;0.43;;;0.40;;
39930;SDS011;26635;-35.248;149.138;2023-01-25T05:32:19;1.90;;;0.55;;
39930;SDS011;26635;-35.248;149.138;2023-01-25T05:34:51;0.32;;;0.30;;
39930;SDS011;26635;-35.248;149.138;2023-01-25T05:37:24;0.90;;;0.30;;
39930;SDS011;26635;-35.248;149.138;2023-01-25T05:39:54;4.53;;;0.75;;
39930;SDS011;26635;-35.248;149.138;2023-01-25T05:42:25;1.75;;;0.50;;
39930;SDS011;26635;-35.248;149.138;2023-01-25T05:44:55;0.70;;;0.50;;
39930;SDS011;26635;-35.248;149.138;2023-01-25T05:47:25;0.85;;;0.38;;
39930;SDS011;26635;-35.248;149.138;2023-01-25T05:49:56;1.08;;;0.40;;
39930;SDS011;26635;-35.248;149.138;2023-01-25T05:52:27;1.27;;;0.57;;
39930;SDS011;26635;-35.248;149.138;2023-01-25T05:54:58;1.23;;;0.77;;
39930;SDS011;26635;-35.248;149.138;2023-01-25T05:57:29;0.63;;;0.30;;
39930;SDS011;26635;-35.248;149.138;2023-01-25T06:00:00;1.85;;;0.55;;
39930;SDS011;26635;-35.248;149.138;2023-01-25T06:02:31;0.90;;;0.50;;
39930;SDS011;26635;-35.248;149.138;2023-01-25T06:05:02;1.17;;;0.60;;
39930;SDS011;26635;-35.248;149.138;2023-01-25T06:07:34;1.20;;;0.57;;
39930;SDS011;26635;-35.248;149.138;2023-01-25T06:10:04;1.40;;;0.68;;
39930;SDS011;26635;-35.248;149.138;2023-01-25T06:12:35;1.52;;;0.63;;
39930;SDS011;26635;-35.248;149.138;2023-01-25T06:15:08;2.53;;;0.70;;
39930;SDS011;26635;-35.248;149.138;2023-01-25T06:17:38;0.77;;;0.50;;
39930;SDS011;26635;-35.248;149.138;2023-01-25T06:20:09;1.50;;;0.55;;
39930;SDS011;26635;-35.248;149.138;2023-01-25T06:22:40;1.25;;;0.68;;
39930;SDS011;26635;-35.248;149.138;2023-01-25T06:25:10;3.13;;;0.98;;
39930;SDS011;26635;-35.248;149.138;2023-01-25T06:27:40;1.33;;;0.50;;
39930;SDS011;26635;-35.248;149.138;2023-01-25T06:30:11;0.75;;;0.63;;
39930;SDS011;26635;-35.248;149.138;2023-01-25T06:32:44;2.08;;;0.50;;
39930;SDS011;26635;-35.248;149.138;2023-01-25T06:35:14;0.50;;;0.50;;
39930;SDS011;26635;-35.248;149.138;2023-01-25T06:37:46;0.68;;;0.50;;
39930;SDS011;26635;-35.248;149.138;2023-01-25T06:40:16;0.93;;;0.40;;
39930;SDS011;26635;-35.248;149.138;2023-01-25T06:42:47;0.95;;;0.50;;
39930;SDS011;26635;-35.248;149.138;2023-01-25T06:45:17;0.43;;;0.30;;
39930;SDS011;26635;-35.248;149.138;2023-01-25T06:47:48;1.17;;;0.50;;
39930;SDS011;26635;-35.248;149.138;2023-01-25T06:50:19;0.82;;;0.50;;
39930;SDS011;26635;-35.248;149.138;2023-01-25T06:52:51;1.73;;;0.50;;
39930;SDS011;26635;-35.248;149.138;2023-01-25T06:55:22;1.05;;;0.60;;
39930;SDS011;26635;-35.248;149.138;2023-01-25T06:57:53;1.10;;;0.50;;
39930;SDS011;26635;-35.248;149.138;2023-01-25T07:00:24;0.57;;;0.50;;
39930;SDS011;26635;-35.248;149.138;2023-01-25T07:02:55;2.80;;;0.60;;
39930;SDS011;26635;-35.248;149.138;2023-01-25T07:05:26;0.73;;;0.57;;
39930;SDS011;26635;-35.248;149.138;2023-01-25T07:07:57;1.10;;;0.50;;
39930;SDS011;26635;-35.248;149.138;2023-01-25T07:10:27;0.35;;;0.35;;
39930;SDS011;26635;-35.248;149.138;2023-01-25T07:12:59;0.85;;;0.47;;
39930;SDS011;26635;-35.248;149.138;2023-01-25T07:15:30;0.85;;;0.40;;
39930;SDS011;26635;-35.248;149.138;2023-01-25T07:18:00;1.17;;;0.70;;
39930;SDS011;26635;-35.248;149.138;2023-01-25T07:20:42;1.27;;;0.57;;
39930;SDS011;26635;-35.248;149.138;2023-01-25T07:23:13;0.40;;;0.40;;
39930;SDS011;26635;-35.248;149.138;2023-01-25T07:25:47;0.38;;;0.38;;
39930;SDS011;26635;-35.248;149.138;2023-01-25T07:28:18;0.50;;;0.43;;
39930;SDS011;26635;-35.248;149.138;2023-01-25T07:30:48;1.00;;;0.57;;
39930;SDS011;26635;-35.248;149.138;2023-01-25T07:33:19;1.55;;;0.70;;
39930;SDS011;26635;-35.248;149.138;2023-01-25T07:35:50;1.02;;;0.77;;
39930;SDS011;26635;-35.248;149.138;2023-01-25T07:38:29;0.90;;;0.50;;
39930;SDS011;26635;-35.248;149.138;2023-01-25T07:41:00;1.05;;;0.60;;
39930;SDS011;26635;-35.248;149.138;2023-01-25T07:43:31;0.85;;;0.40;;
39930;SDS011;26635;-35.248;149.138;2023-01-25T07:46:02;0.50;;;0.40;;
39930;SDS011;26635;-35.248;149.138;2023-01-25T07:48:44;1.50;;;0.50;;
39930;SDS011;26635;-35.248;149.138;2023-01-25T07:51:16;1.77;;;0.50;;
39930;SDS011;26635;-35.248;149.138;2023-01-25T07:53:52;0.47;;;0.30;;
39930;SDS011;26635;-35.248;149.138;2023-01-25T07:56:31;0.30;;;0.30;;
39930;SDS011;26635;-35.248;149.138;2023-01-25T07:59:03;0.98;;;0.50;;
39930;SDS011;26635;-35.248;149.138;2023-01-25T08:01:35;0.50;;;0.30;;
39930;SDS011;26635;-35.248;149.138;2023-01-25T08:04:07;0.82;;;0.47;;
39930;SDS011;26635;-35.248;149.138;2023-01-25T08:06:39;0.95;;;0.68;;
39930;SDS011;26635;-35.248;149.138;2023-01-25T08:09:13;1.25;;;0.35;;
39930;SDS011;26635;-35.248;149.138;2023-01-25T08:11:48;0.63;;;0.40;;
39930;SDS011;26635;-35.248;149.138;2023-01-25T08:14:20;1.27;;;0.40;;
39930;SDS011;26635;-35.248;149.138;2023-01-25T08:16:52;0.45;;;0.30;;
39930;SDS011;26635;-35.248;149.138;2023-01-25T08:19:22;0.50;;;0.40;;
39930;SDS011;26635;-35.248;149.138;2023-01-25T08:21:53;0.80;;;0.35;;
39930;SDS011;26635;-35.248;149.138;2023-01-25T08:24:24;0.88;;;0.68;;
39930;SDS011;26635;-35.248;149.138;2023-01-25T08:26:55;0.98;;;0.40;;
39930;SDS011;26635;-35.248;149.138;2023-01-25T08:29:25;1.75;;;0.50;;
39930;SDS011;26635;-35.248;149.138;2023-01-25T08:31:56;1.25;;;0.60;;
39930;SDS011;26635;-35.248;149.138;2023-01-25T08:34:29;1.20;;;0.50;;
39930;SDS011;26635;-35.248;149.138;2023-01-25T08:37:00;2.03;;;0.40;;
39930;SDS011;26635;-35.248;149.138;2023-01-25T08:39:30;2.33;;;0.40;;
39930;SDS011;26635;-35.248;149.138;2023-01-25T08:42:01;1.30;;;0.30;;
39930;SDS011;26635;-35.248;149.138;2023-01-25T08:44:31;0.28;;;0.25;;
39930;SDS011;26635;-35.248;149.138;2023-01-25T08:47:02;1.23;;;0.40;;
39930;SDS011;26635;-35.248;149.138;2023-01-25T08:49:33;0.88;;;0.40;;
39930;SDS011;26635;-35.248;149.138;2023-01-25T08:52:04;2.35;;;0.50;;
39930;SDS011;26635;-35.248;149.138;2023-01-25T08:54:35;2.13;;;0.55;;
39930;SDS011;26635;-35.248;149.138;2023-01-25T08:57:05;1.17;;;0.57;;
39930;SDS011;26635;-35.248;149.138;2023-01-25T08:59:35;0.93;;;0.50;;
39930;SDS011;26635;-35.248;149.138;2023-01-25T09:02:08;0.95;;;0.40;;
39930;SDS011;26635;-35.248;149.138;2023-01-25T09:04:40;1.42;;;0.40;;
39930;SDS011;26635;-35.248;149.138;2023-01-25T09:07:11;1.50;;;0.60;;
39930;SDS011;26635;-35.248;149.138;2023-01-25T09:09:41;0.40;;;0.35;;
39930;SDS011;26635;-35.248;149.138;2023-01-25T09:12:11;0.68;;;0.25;;
39930;SDS011;26635;-35.248;149.138;2023-01-25T09:14:42;2.55;;;0.30;;
39930;SDS011;26635;-35.248;149.138;2023-01-25T09:17:12;0.80;;;0.40;;
39930;SDS011;26635;-35.248;149.138;2023-01-25T09:19:43;1.45;;;0.43;;
39930;SDS011;26635;-35.248;149.138;2023-01-25T09:22:15;2.35;;;0.70;;
39930;SDS011;26635;-35.248;149.138;2023-01-25T09:24:46;1.85;;;0.55;;
39930;SDS011;26635;-35.248;149.138;2023-01-25T09:27:19;1.40;;;0.63;;
39930;SDS011;26635;-35.248;149.138;2023-01-25T09:29:50;2.67;;;0.45;;
39930;SDS011;26635;-35.248;149.138;2023-01-25T09:32:28;1.23;;;0.50;;
39930;SDS011;26635;-35.248;149.138;2023-01-25T09:34:58;1.52;;;0.40;;
39930;SDS011;26635;-35.248;149.138;2023-01-25T09:37:28;0.60;;;0.40;;
39930;SDS011;26635;-35.248;149.138;2023-01-25T09:39:59;1.65;;;0.40;;
39930;SDS011;26635;-35.248;149.138;2023-01-25T09:45:30;0.93;;;0.50;;
39930;SDS011;26635;-35.248;149.138;2023-01-25T09:48:08;1.50;;;0.63;;
39930;SDS011;26635;-35.248;149.138;2023-01-25T09:53:50;1.70;;;0.43;;
39930;SDS011;26635;-35.248;149.138;2023-01-25T09:56:28;0.80;;;0.50;;
39930;SDS011;26635;-35.248;149.138;2023-01-25T09:59:09;1.88;;;0.70;;
39930;SDS011;26635;-35.248;149.138;2023-01-25T10:01:52;1.90;;;0.52;;
39930;SDS011;26635;-35.248;149.138;2023-01-25T10:04:26;1.00;;;0.43;;
39930;SDS011;26635;-35.248;149.138;2023-01-25T10:12:30;1.77;;;0.82;;
39930;SDS011;26635;-35.248;149.138;2023-01-25T10:15:16;1.42;;;0.88;;
39930;SDS011;26635;-35.248;149.138;2023-01-25T10:18:03;1.85;;;0.70;;
39930;SDS011;26635;-35.248;149.138;2023-01-25T10:20:57;1.38;;;0.60;;
39930;SDS011;26635;-35.248;149.138;2023-01-25T10:23:46;1.90;;;0.82;;
39930;SDS011;26635;-35.248;149.138;2023-01-25T10:26:25;1.80;;;0.60;;
39930;SDS011;26635;-35.248;149.138;2023-01-25T10:31:52;2.42;;;0.70;;
39930;SDS011;26635;-35.248;149.138;2023-01-25T10:34:32;2.67;;;0.90;;
39930;SDS011;26635;-35.248;149.138;2023-01-25T10:37:23;5.32;;;1.00;;
39930;SDS011;26635;-35.248;149.138;2023-01-25T10:42:45;2.47;;;0.77;;
39930;SDS011;26635;-35.248;149.138;2023-01-25T10:45:30;2.15;;;0.82;;
39930;SDS011;26635;-35.248;149.138;2023-01-25T10:48:02;2.00;;;0.88;;
39930;SDS011;26635;-35.248;149.138;2023-01-25T10:50:41;1.55;;;0.70;;
39930;SDS011;26635;-35.248;149.138;2023-01-25T10:53:23;2.10;;;0.50;;
39930;SDS011;26635;-35.248;149.138;2023-01-25T10:56:01;1.60;;;0.90;;
39930;SDS011;26635;-35.248;149.138;2023-01-25T10:58:36;2.83;;;1.02;;
39930;SDS011;26635;-35.248;149.138;2023-01-25T11:01:09;2.03;;;1.00;;
39930;SDS011;26635;-35.248;149.138;2023-01-25T11:03:52;3.92;;;1.33;;
39930;SDS011;26635;-35.248;149.138;2023-01-25T11:06:29;2.53;;;1.63;;
39930;SDS011;26635;-35.248;149.138;2023-01-25T11:11:57;5.28;;;1.63;;
39930;SDS011;26635;-35.248;149.138;2023-01-25T11:14:45;3.35;;;1.50;;
39930;SDS011;26635;-35.248;149.138;2023-01-25T11:17:25;2.53;;;1.33;;
39930;SDS011;26635;-35.248;149.138;2023-01-25T11:20:15;3.53;;;1.35;;
39930;SDS011;26635;-35.248;149.138;2023-01-25T11:22:53;2.33;;;1.00;;
39930;SDS011;26635;-35.248;149.138;2023-01-25T11:25:31;1.73;;;1.00;;
39930;SDS011;26635;-35.248;149.138;2023-01-25T11:28:36;3.58;;;1.05;;
39930;SDS011;26635;-35.248;149.138;2023-01-25T11:30:59;3.72;;;1.10;;
39930;SDS011;26635;-35.248;149.138;2023-01-25T11:33:29;2.28;;;1.02;;
39930;SDS011;26635;-35.248;149.138;2023-01-25T11:36:14;2.55;;;1.33;;
39930;SDS011;26635;-35.248;149.138;2023-01-25T11:38:55;2.97;;;1.00;;
39930;SDS011;26635;-35.248;149.138;2023-01-25T11:44:16;2.63;;;0.75;;
39930;SDS011;26635;-35.248;149.138;2023-01-25T11:50:13;2.60;;;0.70;;
39930;SDS011;26635;-35.248;149.138;2023-01-25T11:53:12;2.33;;;0.68;;
39930;SDS011;26635;-35.248;149.138;2023-01-25T11:59:08;2.30;;;0.80;;
39930;SDS011;26635;-35.248;149.138;2023-01-25T12:05:01;2.17;;;0.65;;
39930;SDS011;26635;-35.248;149.138;2023-01-25T12:13:39;2.47;;;0.90;;
39930;SDS011;26635;-35.248;149.138;2023-01-25T12:17:02;4.55;;;1.63;;
39930;SDS011;26635;-35.248;149.138;2023-01-25T12:34:02;2.15;;;0.80;;
39930;SDS011;26635;-35.248;149.138;2023-01-25T12:36:43;2.22;;;1.00;;
39930;SDS011;26635;-35.248;149.138;2023-01-25T12:43:00;7.53;;;1.15;;
39930;SDS011;26635;-35.248;149.138;2023-01-25T12:45:36;8.32;;;1.20;;
39930;SDS011;26635;-35.248;149.138;2023-01-25T12:48:17;5.18;;;1.33;;
39930;SDS011;26635;-35.248;149.138;2023-01-25T12:50:59;7.07;;;1.20;;
39930;SDS011;26635;-35.248;149.138;2023-01-25T12:53:37;8.68;;;1.45;;
39930;SDS011;26635;-35.248;149.138;2023-01-25T12:59:14;5.00;;;1.13;;
39930;SDS011;26635;-35.248;149.138;2023-01-25T13:13:00;1.77;;;1.00;;
39930;SDS011;26635;-35.248;149.138;2023-01-25T13:15:46;3.17;;;0.93;;
39930;SDS011;26635;-35.248;149.138;2023-01-25T13:20:57;2.38;;;0.93;;
39930;SDS011;26635;-35.248;149.138;2023-01-25T13:23:34;4.25;;;1.10;;
39930;SDS011;26635;-35.248;149.138;2023-01-25T13:28:53;3.97;;;0.80;;
39930;SDS011;26635;-35.248;149.138;2023-01-25T13:39:52;2.33;;;0.90;;
39930;SDS011;26635;-35.248;149.138;2023-01-25T13:42:36;2.42;;;1.42;;
39930;SDS011;26635;-35.248;149.138;2023-01-25T13:48:05;2.00;;;0.80;;
39930;SDS011;26635;-35.248;149.138;2023-01-25T13:50:50;4.03;;;1.52;;
39930;SDS011;26635;-35.248;149.138;2023-01-25T13:53:35;2.50;;;0.85;;
39930;SDS011;26635;-35.248;149.138;2023-01-25T13:56:25;2.58;;;1.27;;
39930;SDS011;26635;-35.248;149.138;2023-01-25T13:59:00;2.42;;;0.90;;
39930;SDS011;26635;-35.248;149.138;2023-01-25T14:01:32;2.15;;;1.00;;
39930;SDS011;26635;-35.248;149.138;2023-01-25T14:04:04;4.35;;;1.90;;
39930;SDS011;26635;-35.248;149.138;2023-01-25T14:06:37;3.10;;;1.00;;
39930;SDS011;26635;-35.248;149.138;2023-01-25T14:09:16;3.85;;;1.10;;
39930;SDS011;26635;-35.248;149.138;2023-01-25T14:11:55;2.55;;;1.13;;
39930;SDS011;26635;-35.248;149.138;2023-01-25T14:14:32;1.52;;;0.90;;
39930;SDS011;26635;-35.248;149.138;2023-01-25T14:17:37;1.60;;;0.90;;
39930;SDS011;26635;-35.248;149.138;2023-01-25T14:20:00;2.60;;;1.40;;
39930;SDS011;26635;-35.248;149.138;2023-01-25T14:22:48;2.60;;;1.00;;
39930;SDS011;26635;-35.248;149.138;2023-01-25T14:25:21;2.33;;;0.82;;
39930;SDS011;26635;-35.248;149.138;2023-01-25T14:30:32;0.93;;;0.75;;
39930;SDS011;26635;-35.248;149.138;2023-01-25T14:36:02;2.30;;;1.03;;
39930;SDS011;26635;-35.248;149.138;2023-01-25T14:38:50;1.83;;;0.95;;
39930;SDS011;26635;-35.248;149.138;2023-01-25T14:43:59;1.52;;;0.90;;
39930;SDS011;26635;-35.248;149.138;2023-01-25T14:46:33;2.53;;;1.00;;
39930;SDS011;26635;-35.248;149.138;2023-01-25T14:51:48;2.70;;;0.90;;
39930;SDS011;26635;-35.248;149.138;2023-01-25T14:54:27;1.38;;;0.80;;
39930;SDS011;26635;-35.248;149.138;2023-01-25T14:57:01;2.90;;;1.60;;
39930;SDS011;26635;-35.248;149.138;2023-01-25T14:59:44;2.17;;;0.80;;
39930;SDS011;26635;-35.248;149.138;2023-01-25T15:02:23;1.80;;;0.95;;
39930;SDS011;26635;-35.248;149.138;2023-01-25T15:04:59;1.42;;;0.90;;
39930;SDS011;26635;-35.248;149.138;2023-01-25T15:07:46;1.38;;;0.90;;
39930;SDS011;26635;-35.248;149.138;2023-01-25T15:15:57;2.10;;;1.00;;
39930;SDS011;26635;-35.248;149.138;2023-01-25T15:23:55;1.60;;;0.90;;
39930;SDS011;26635;-35.248;149.138;2023-01-25T15:26:34;1.85;;;1.02;;
39930;SDS011;26635;-35.248;149.138;2023-01-25T15:29:12;1.73;;;1.08;;
39930;SDS011;26635;-35.248;149.138;2023-01-25T15:31:44;3.20;;;1.00;;
39930;SDS011;26635;-35.248;149.138;2023-01-25T15:34:19;1.77;;;1.20;;
39930;SDS011;26635;-35.248;149.138;2023-01-25T15:36:57;3.10;;;2.10;;
39930;SDS011;26635;-35.248;149.138;2023-01-25T15:39:27;2.47;;;1.05;;
39930;SDS011;26635;-35.248;149.138;2023-01-25T15:42:00;2.00;;;1.20;;
39930;SDS011;26635;-35.248;149.138;2023-01-25T15:44:32;1.48;;;1.00;;
39930;SDS011;26635;-35.248;149.138;2023-01-25T15:47:04;1.70;;;1.00;;
39930;SDS011;26635;-35.248;149.138;2023-01-25T15:49:34;2.65;;;1.33;;
39930;SDS011;26635;-35.248;149.138;2023-01-25T15:52:07;1.90;;;1.30;;
39930;SDS011;26635;-35.248;149.138;2023-01-25T15:54:39;2.17;;;1.13;;
39930;SDS011;26635;-35.248;149.138;2023-01-25T15:57:27;2.83;;;1.30;;
39930;SDS011;26635;-35.248;149.138;2023-01-25T16:00:02;1.38;;;0.90;;
39930;SDS011;26635;-35.248;149.138;2023-01-25T16:02:34;3.88;;;1.30;;
39930;SDS011;26635;-35.248;149.138;2023-01-25T16:05:04;2.28;;;1.02;;
39930;SDS011;26635;-35.248;149.138;2023-01-25T16:07:35;1.67;;;1.00;;
39930;SDS011;26635;-35.248;149.138;2023-01-25T16:10:17;3.17;;;0.80;;
39930;SDS011;26635;-35.248;149.138;2023-01-25T16:12:52;1.25;;;0.85;;
39930;SDS011;26635;-35.248;149.138;2023-01-25T16:15:22;2.80;;;1.00;;
39930;SDS011;26635;-35.248;149.138;2023-01-25T16:17:53;2.95;;;1.20;;
39930;SDS011;26635;-35.248;149.138;2023-01-25T16:20:23;2.00;;;1.33;;
39930;SDS011;26635;-35.248;149.138;2023-01-25T16:22:55;2.72;;;1.40;;
39930;SDS011;26635;-35.248;149.138;2023-01-25T16:25:25;2.20;;;1.20;;
39930;SDS011;26635;-35.248;149.138;2023-01-25T16:27:58;1.73;;;0.95;;
39930;SDS011;26635;-35.248;149.138;2023-01-25T16:30:28;3.20;;;1.38;;
39930;SDS011;26635;-35.248;149.138;2023-01-25T16:33:01;2.78;;;1.27;;
39930;SDS011;26635;-35.248;149.138;2023-01-25T16:35:32;2.85;;;1.17;;
39930;SDS011;26635;-35.248;149.138;2023-01-25T16:38:03;1.55;;;0.98;;
39930;SDS011;26635;-35.248;149.138;2023-01-25T16:40:34;2.08;;;0.90;;
39930;SDS011;26635;-35.248;149.138;2023-01-25T16:43:08;1.65;;;0.90;;
39930;SDS011;26635;-35.248;149.138;2023-01-25T16:45:38;3.35;;;1.00;;
39930;SDS011;26635;-35.248;149.138;2023-01-25T16:48:10;1.63;;;1.00;;
39930;SDS011;26635;-35.248;149.138;2023-01-25T16:50:45;3.08;;;1.08;;
39930;SDS011;26635;-35.248;149.138;2023-01-25T16:53:18;1.98;;;0.80;;
39930;SDS011;26635;-35.248;149.138;2023-01-25T16:55:48;1.88;;;1.30;;